Time;durP1;ratioP1;P1;durP2;ratioP2;P2;SDS_P1;SDS_P2;PMS_P1;PMS_P2;Temp;Humidity;BMP_temperature;BMP_pressure;BME280_temperature;BME280_humidity;BME280_pressure;Samples;Min_cycle;Max_cycle;Signal;HPM_P1;HPM_P2
2021/12/05 00:18:35;;;;;;;29.60;12.30;;;5.60;99.90;;;;;;5046489;28;20137;-69
2021/12/05 00:23:50;;;;;;;28.45;12.15;;;5.60;99.90;;;;;;5050503;28;20041;-69
2021/12/05 00:26:19;;;;;;;24.25;11.20;;;5.60;99.90;;;;;;5048921;28;20049;-69
2021/12/05 00:31:29;;;;;;;23.02;11.38;;;5.50;99.90;;;;;;5048432;28;20055;-69
2021/12/05 00:34:14;;;;;;;19.90;10.02;;;5.40;99.90;;;;;;5033071;28;20041;-69
2021/12/05 00:48:38;;;;;;;15.95;8.50;;;5.50;99.90;;;;;;5028327;28;20049;-69
2021/12/05 00:56:00;;;;;;;16.42;7.57;;;5.40;99.90;;;;;;5050636;28;20088;-68
2021/12/05 01:01:32;;;;;;;21.90;7.72;;;5.40;99.90;;;;;;5054074;28;20057;-69
2021/12/05 01:07:09;;;;;;;15.43;7.30;;;5.30;99.90;;;;;;5069046;28;20044;-68
2021/12/05 01:10:30;;;;;;;14.20;7.10;;;5.30;99.90;;;;;;5068258;28;20047;-69
2021/12/05 01:12:44;;;;;;;15.75;7.30;;;5.30;99.90;;;;;;5060850;28;20040;-69
2021/12/05 01:15:17;;;;;;;20.43;7.50;;;5.30;99.90;;;;;;5067906;28;20044;-69
2021/12/05 01:18:01;;;;;;;13.25;6.53;;;5.30;99.90;;;;;;5049707;28;20063;-69
2021/12/05 01:20:30;;;;;;;15.90;6.28;;;5.30;99.90;;;;;;5070668;28;20485;-69
2021/12/05 01:23:09;;;;;;;17.10;6.07;;;5.20;99.90;;;;;;5053750;28;20479;-69
2021/12/05 01:28:25;;;;;;;11.65;5.63;;;5.20;99.90;;;;;;5067871;28;20051;-69
2021/12/05 01:33:51;;;;;;;11.93;5.97;;;5.20;99.90;;;;;;5068252;28;20132;-68
2021/12/05 01:37:12;;;;;;;15.88;6.25;;;5.20;99.90;;;;;;5050153;28;20044;-69
2021/12/05 01:44:57;;;;;;;15.23;5.90;;;5.10;99.90;;;;;;5068740;28;20056;-68
2021/12/05 01:53:11;;;;;;;12.60;6.32;;;5.10;99.90;;;;;;5079649;28;20063;-68
2021/12/05 01:56:02;;;;;;;11.52;6.25;;;5.00;99.90;;;;;;5088338;28;20056;-68
2021/12/05 02:33:48;;;;;;;15.23;7.47;;;4.80;99.90;;;;;;5088734;28;20044;-68
2021/12/05 02:41:46;;;;;;;15.43;7.63;;;4.90;99.90;;;;;;5092206;28;20416;-68
2021/12/05 02:44:21;;;;;;;16.92;7.13;;;4.90;99.90;;;;;;5090149;28;20051;-68
2021/12/05 02:46:52;;;;;;;14.68;7.50;;;4.90;99.90;;;;;;5091433;28;20350;-68
2021/12/05 02:49:18;;;;;;;14.05;7.22;;;4.70;99.90;;;;;;5071841;28;20074;-68
2021/12/05 02:51:55;;;;;;;10.45;6.88;;;4.80;99.90;;;;;;5091916;28;20068;-68
2021/12/05 02:54:24;;;;;;;16.15;7.53;;;5.70;99.90;;;;;;5089652;28;20101;-68
2021/12/05 02:56:51;;;;;;;16.65;7.88;;;4.80;99.90;;;;;;5086408;28;20055;-67
2021/12/05 02:59:23;;;;;;;15.35;6.90;;;4.80;99.90;;;;;;5080113;28;20602;-68
2021/12/05 03:01:58;;;;;;;14.23;6.97;;;4.80;99.90;;;;;;5069553;28;20075;-68
2021/12/05 03:04:28;;;;;;;14.85;6.65;;;4.70;99.90;;;;;;5072192;28;20094;-68
2021/12/05 03:06:55;;;;;;;16.13;7.82;;;4.80;99.90;;;;;;5073987;28;20051;-67
2021/12/05 03:09:21;;;;;;;11.23;6.95;;;4.80;99.90;;;;;;5069395;28;20051;-68
2021/12/05 03:11:48;;;;;;;14.02;6.72;;;4.80;99.90;;;;;;5091846;28;20043;-68
2021/12/05 03:14:14;;;;;;;16.17;7.47;;;4.80;99.90;;;;;;5059492;28;20044;-68
2021/12/05 03:16:41;;;;;;;14.48;7.18;;;4.80;99.90;;;;;;5067372;28;20041;-68
2021/12/05 03:19:08;;;;;;;13.90;6.43;;;4.80;99.90;;;;;;5052352;28;20405;-68
2021/12/05 03:21:36;;;;;;;15.57;7.57;;;4.80;99.90;;;;;;5072263;28;20060;-68
2021/12/05 03:24:02;;;;;;;12.40;7.10;;;4.80;99.90;;;;;;5083272;28;20055;-68
2021/12/05 03:26:32;;;;;;;17.48;7.43;;;4.80;99.90;;;;;;5052287;28;20131;-68
2021/12/05 03:28:58;;;;;;;14.82;7.45;;;4.80;99.90;;;;;;5072200;28;20048;-68
2021/12/05 03:31:26;;;;;;;17.30;8.00;;;4.70;99.90;;;;;;5068698;28;20393;-68
2021/12/05 03:33:53;;;;;;;16.83;7.97;;;4.80;99.90;;;;;;5070138;28;20063;-68
2021/12/05 03:36:19;;;;;;;17.23;7.40;;;4.80;99.90;;;;;;5070057;28;20045;-69
2021/12/05 03:38:45;;;;;;;18.80;8.25;;;4.80;99.90;;;;;;5071654;28;20123;-68
2021/12/05 03:41:12;;;;;;;15.02;7.43;;;4.70;99.90;;;;;;5074313;28;20113;-68
2021/12/05 03:43:39;;;;;;;17.95;7.85;;;4.80;99.90;;;;;;5089055;28;20375;-68
2021/12/05 03:46:05;;;;;;;15.25;8.05;;;4.70;99.90;;;;;;5092025;28;20048;-68
2021/12/05 03:48:37;;;;;;;18.45;7.63;;;4.70;99.90;;;;;;5089450;28;20040;-68
2021/12/05 03:51:04;;;;;;;17.60;7.93;;;4.70;99.90;;;;;;5076598;28;20678;-68
2021/12/05 03:53:29;;;;;;;21.38;8.60;;;4.70;99.90;;;;;;5069182;28;20114;-68
2021/12/05 03:55:57;;;;;;;16.45;7.85;;;4.80;99.90;;;;;;5072260;28;20451;-68
2021/12/05 03:58:24;;;;;;;15.65;8.98;;;4.70;99.90;;;;;;5069963;28;20091;-68
2021/12/05 04:00:57;;;;;;;17.67;8.32;;;4.70;99.90;;;;;;5068867;28;20044;-68
2021/12/05 04:03:25;;;;;;;15.40;8.68;;;4.70;99.90;;;;;;5056529;28;20053;-68
2021/12/05 04:05:52;;;;;;;23.10;8.52;;;4.70;99.90;;;;;;5061396;28;20113;-68
2021/12/05 04:08:20;;;;;;;19.92;8.75;;;4.70;99.90;;;;;;5069220;28;20151;-69
2021/12/05 04:10:50;;;;;;;19.70;9.20;;;4.70;99.90;;;;;;5069783;28;20090;-68
2021/12/05 04:13:16;;;;;;;20.00;9.57;;;4.60;99.90;;;;;;5050292;28;20536;-68
2021/12/05 04:15:43;;;;;;;16.05;8.82;;;4.60;99.90;;;;;;5069155;28;20080;-68
2021/12/05 04:18:08;;;;;;;18.60;9.32;;;4.60;99.90;;;;;;5068408;28;20090;-68
2021/12/05 04:20:34;;;;;;;16.73;9.88;;;4.60;99.90;;;;;;5068337;28;20036;-68
2021/12/05 04:23:00;;;;;;;21.95;10.23;;;4.50;99.90;;;;;;5069579;28;20059;-68
2021/12/05 04:25:26;;;;;;;18.80;9.93;;;4.50;99.90;;;;;;5068487;28;20388;-68
2021/12/05 04:27:54;;;;;;;22.88;10.50;;;4.50;99.90;;;;;;5069256;28;20044;-68
2021/12/05 04:30:22;;;;;;;22.17;9.95;;;4.50;99.90;;;;;;5068314;28;20045;-68
2021/12/05 04:32:48;;;;;;;21.17;10.48;;;4.50;99.90;;;;;;5068482;28;20048;-67
2021/12/05 04:35:14;;;;;;;22.48;11.25;;;4.40;99.90;;;;;;5069017;28;20041;-68
2021/12/05 04:37:40;;;;;;;22.38;10.82;;;4.40;99.90;;;;;;5069063;28;20046;-68
2021/12/05 04:40:08;;;;;;;22.52;11.65;;;4.40;99.90;;;;;;5068867;28;20041;-68
2021/12/05 04:42:34;;;;;;;19.17;10.75;;;4.30;99.90;;;;;;5068688;28;20401;-68
2021/12/05 04:45:03;;;;;;;27.63;11.63;;;4.30;99.90;;;;;;5069217;28;20051;-68
2021/12/05 04:47:29;;;;;;;21.80;10.45;;;4.30;99.90;;;;;;5066534;28;20050;-68
2021/12/05 04:49:55;;;;;;;19.95;11.15;;;5.20;99.90;;;;;;5069687;28;20525;-68
2021/12/05 04:52:21;;;;;;;22.00;11.10;;;4.30;99.90;;;;;;5037822;28;20484;-68
2021/12/05 04:54:47;;;;;;;22.75;11.82;;;4.30;99.90;;;;;;5061716;28;20045;-68
2021/12/05 04:57:13;;;;;;;27.02;12.15;;;5.30;99.90;;;;;;5068199;28;20036;-68
2021/12/05 04:59:44;;;;;;;28.88;12.88;;;4.30;99.90;;;;;;5068484;28;20041;-68
2021/12/05 05:02:10;;;;;;;25.85;11.70;;;4.30;99.90;;;;;;5066756;28;20050;-68
2021/12/05 05:04:42;;;;;;;22.70;11.80;;;4.40;99.90;;;;;;5069295;28;20052;-68
2021/12/05 05:07:17;;;;;;;24.50;12.23;;;4.40;99.90;;;;;;5068526;28;20059;-68
2021/12/05 05:09:43;;;;;;;24.10;11.40;;;4.40;99.90;;;;;;5068693;28;20532;-68
2021/12/05 05:12:08;;;;;;;29.13;12.75;;;4.40;99.90;;;;;;5068667;28;20124;-68
2021/12/05 05:14:34;;;;;;;22.10;11.23;;;5.40;99.90;;;;;;5068587;28;20124;-68
2021/12/05 05:17:00;;;;;;;27.05;12.80;;;4.40;99.90;;;;;;5067353;28;20075;-68
2021/12/05 05:19:31;;;;;;;30.88;12.52;;;4.40;99.90;;;;;;5067510;28;20048;-68
2021/12/05 05:25:19;;;;;;;22.65;11.85;;;4.40;99.90;;;;;;5050827;28;20044;-67
2021/12/05 05:42:02;;;;;;;24.02;11.32;;;4.40;99.90;;;;;;5054588;28;20424;-68
2021/12/05 05:44:39;;;;;;;28.52;11.02;;;4.40;99.90;;;;;;5067236;28;20048;-68
2021/12/05 05:47:13;;;;;;;21.58;11.07;;;4.50;99.90;;;;;;5067438;28;20082;-68
2021/12/05 05:52:13;;;;;;;21.90;9.68;;;4.50;99.90;;;;;;5067116;28;20121;-69
2021/12/05 05:54:39;;;;;;;21.38;10.88;;;4.40;99.90;;;;;;5050721;28;20059;-69
2021/12/05 05:57:17;;;;;;;18.45;9.95;;;4.50;99.90;;;;;;5061795;28;20115;-69
2021/12/05 05:59:50;;;;;;;21.88;8.82;;;4.50;99.90;;;;;;5071069;28;20084;-69
2021/12/05 06:04:42;;;;;;;21.83;10.00;;;4.50;99.90;;;;;;5048035;28;20102;-69
2021/12/05 06:07:08;;;;;;;21.55;9.10;;;4.50;99.90;;;;;;5069462;28;20032;-69
2021/12/05 06:09:34;;;;;;;21.10;9.73;;;4.60;99.90;;;;;;5072627;28;20147;-69
2021/12/05 06:12:00;;;;;;;21.02;9.52;;;4.50;99.90;;;;;;5069082;28;20482;-69
2021/12/05 06:14:27;;;;;;;21.85;9.10;;;4.50;99.90;;;;;;5055954;28;20088;-69
2021/12/05 06:16:53;;;;;;;22.02;8.98;;;4.50;99.90;;;;;;5071063;28;20045;-69
2021/12/05 06:19:19;;;;;;;25.77;9.02;;;4.40;99.90;;;;;;5069732;28;20079;-69
2021/12/05 06:21:44;;;;;;;16.27;8.13;;;5.40;99.90;;;;;;5059969;28;20111;-69
2021/12/05 06:24:10;;;;;;;21.85;9.40;;;4.40;99.90;;;;;;5075324;28;20037;-69
2021/12/05 06:26:36;;;;;;;16.95;8.30;;;4.40;99.90;;;;;;5070792;28;20483;-69
2021/12/05 06:40:18;;;;;;;21.05;8.40;;;5.10;99.90;;;;;;5070636;28;20048;-69
2021/12/05 06:42:46;;;;;;;20.83;7.78;;;4.10;99.90;;;;;;5065237;28;20041;-69
2021/12/05 06:47:56;;;;;;;18.88;7.78;;;4.10;99.90;;;;;;5052496;28;20477;-69
2021/12/05 06:50:22;;;;;;;21.25;8.35;;;4.00;99.90;;;;;;5071245;28;20042;-69
2021/12/05 06:52:47;;;;;;;15.50;7.15;;;4.10;99.90;;;;;;5037259;28;20060;-69
2021/12/05 06:55:15;;;;;;;20.63;7.35;;;4.00;99.90;;;;;;5033591;28;20409;-69
2021/12/05 06:57:41;;;;;;;18.20;7.78;;;4.00;99.90;;;;;;5048189;28;20053;-68
2021/12/05 07:00:12;;;;;;;20.35;9.02;;;4.00;99.90;;;;;;5068740;28;20097;-69
2021/12/05 07:02:37;;;;;;;21.90;7.88;;;4.00;99.90;;;;;;5069116;28;20106;-69
2021/12/05 07:07:34;;;;;;;16.77;6.65;;;3.90;99.90;;;;;;5069978;28;20048;-69
2021/12/05 07:10:01;;;;;;;21.40;7.20;;;4.00;99.90;;;;;;5053611;28;20102;-69
2021/12/05 07:13:20;;;;;;;19.27;8.05;;;4.10;99.90;;;;;;5070300;28;20049;-70
2021/12/05 07:15:43;;;;;;;21.65;7.47;;;4.00;99.90;;;;;;5068492;28;20048;-71
2021/12/05 07:26:08;;;;;;;16.45;7.50;;;4.10;99.90;;;;;;5038937;28;20040;-71
2021/12/05 07:42:24;;;;;;;15.85;8.25;;;4.10;99.90;;;;;;5058686;28;20132;-71
2021/12/05 07:44:55;;;;;;;15.60;7.53;;;4.20;99.90;;;;;;5069573;28;20428;-71
2021/12/05 07:47:24;;;;;;;19.13;7.95;;;4.20;99.90;;;;;;5067811;28;20052;-71
2021/12/05 07:49:52;;;;;;;18.33;7.43;;;4.20;99.90;;;;;;5071755;28;20363;-70
2021/12/05 07:52:20;;;;;;;22.35;7.72;;;4.20;99.90;;;;;;5053692;28;20057;-70
2021/12/05 07:54:51;;;;;;;21.83;7.90;;;4.20;99.90;;;;;;5052283;28;20049;-71
2021/12/05 07:57:26;;;;;;;21.42;7.95;;;4.20;99.90;;;;;;5070673;28;20440;-70
2021/12/05 08:16:10;;;;;;;17.92;8.18;;;4.10;99.90;;;;;;5061408;28;20178;-70
2021/12/05 08:18:35;;;;;;;18.35;8.52;;;4.20;99.90;;;;;;5051430;28;20048;-71
2021/12/05 08:21:04;;;;;;;16.20;7.75;;;4.30;99.90;;;;;;5051813;28;20040;-70
2021/12/05 08:23:29;;;;;;;17.10;8.05;;;4.30;99.90;;;;;;5069285;28;20064;-70
2021/12/05 08:31:23;;;;;;;23.60;9.35;;;4.30;99.90;;;;;;5067794;28;20884;-70
2021/12/05 08:37:03;;;;;;;20.15;9.07;;;4.40;99.90;;;;;;5063732;28;20049;-70
2021/12/05 09:29:01;;;;;;;19.83;10.55;;;4.90;99.90;;;;;;5065961;28;20150;-70
2021/12/05 09:38:29;;;;;;;22.58;10.55;;;4.80;99.90;;;;;;5066307;28;20080;-70
2021/12/05 10:09:31;;;;;;;22.38;11.30;;;5.60;99.90;;;;;;5057499;28;20124;-70
2021/12/05 10:17:33;;;;;;;25.48;10.70;;;4.80;99.90;;;;;;5066374;28;20135;-70
2021/12/05 10:37:14;;;;;;;21.08;10.18;;;5.00;99.90;;;;;;5067162;28;20098;-70
2021/12/05 10:39:40;;;;;;;19.17;9.90;;;5.00;99.90;;;;;;5031569;28;20044;-70
2021/12/05 10:42:44;;;;;;;22.80;11.23;;;5.00;99.90;;;;;;5067139;28;20985;-70
2021/12/05 10:45:25;;;;;;;20.77;10.73;;;5.10;99.90;;;;;;4946559;28;20054;-70
2021/12/05 10:47:53;;;;;;;21.88;11.10;;;5.10;99.90;;;;;;5033820;28;20173;-70
2021/12/05 10:50:33;;;;;;;22.70;11.05;;;5.10;99.90;;;;;;5055895;28;20525;-70
2021/12/05 10:53:29;;;;;;;21.30;10.35;;;5.10;99.90;;;;;;5028906;28;20068;-70
2021/12/05 10:56:24;;;;;;;19.47;10.20;;;5.20;99.90;;;;;;5032891;28;20045;-70
2021/12/05 10:58:54;;;;;;;17.08;10.43;;;5.20;99.90;;;;;;5055146;28;20053;-70
2021/12/05 11:01:41;;;;;;;17.85;10.57;;;5.20;99.90;;;;;;5058553;28;20052;-70
2021/12/05 11:04:08;;;;;;;18.63;9.63;;;5.20;99.90;;;;;;5057100;28;20177;-71
2021/12/05 11:06:50;;;;;;;20.38;10.45;;;5.20;99.90;;;;;;5051714;28;20055;-70
2021/12/05 11:09:37;;;;;;;18.27;10.50;;;5.10;99.90;;;;;;5065033;28;20047;-70
2021/12/05 11:12:14;;;;;;;17.75;9.80;;;5.30;99.90;;;;;;5063649;28;20049;-72
2021/12/05 11:14:44;;;;;;;17.75;9.70;;;5.10;99.90;;;;;;5069574;28;20048;-71
2021/12/05 11:17:27;;;;;;;22.15;10.60;;;5.20;99.90;;;;;;5068914;28;20059;-70
2021/12/05 11:20:32;;;;;;;18.55;10.57;;;5.10;99.90;;;;;;5070600;28;20055;-70
2021/12/05 11:22:58;;;;;;;19.42;10.43;;;5.20;99.90;;;;;;5012686;28;20064;-70
2021/12/05 11:25:28;;;;;;;20.10;10.90;;;6.20;99.90;;;;;;5034212;28;20136;-70
2021/12/05 11:27:57;;;;;;;21.05;10.50;;;5.30;99.90;;;;;;5052509;28;20049;-70
2021/12/05 11:30:32;;;;;;;22.42;10.32;;;5.30;99.90;;;;;;5049104;28;20076;-70
2021/12/05 11:33:02;;;;;;;19.80;10.32;;;5.30;99.90;;;;;;5050441;28;20052;-70
2021/12/05 11:35:33;;;;;;;16.63;9.45;;;5.30;99.90;;;;;;5048872;28;20532;-70
2021/12/05 11:38:29;;;;;;;19.10;10.60;;;5.30;99.90;;;;;;5033541;28;20045;-70
2021/12/05 11:41:20;;;;;;;17.88;9.80;;;5.70;99.90;;;;;;5031645;28;20080;-71
2021/12/05 11:43:58;;;;;;;18.02;9.70;;;5.30;99.90;;;;;;5069974;28;20445;-70
2021/12/05 11:46:31;;;;;;;16.52;9.98;;;5.30;99.90;;;;;;5070949;28;20048;-70
2021/12/05 11:49:06;;;;;;;21.55;10.73;;;5.40;99.90;;;;;;5051629;28;20094;-70
2021/12/05 11:51:44;;;;;;;15.15;9.98;;;5.40;99.90;;;;;;5070241;28;20059;-70
2021/12/05 11:54:14;;;;;;;17.10;9.85;;;5.30;99.90;;;;;;5070211;28;20181;-70
2021/12/05 11:56:59;;;;;;;20.58;10.43;;;5.40;99.90;;;;;;5051030;28;20087;-71
2021/12/05 11:59:35;;;;;;;19.67;9.93;;;5.50;99.90;;;;;;5049898;28;20041;-71
2021/12/05 12:02:15;;;;;;;;;;;5.60;99.90;;;;;;5050105;28;20424;-70
2021/12/05 12:04:49;;;;;;;18.70;9.80;;;5.60;99.90;;;;;;5050833;28;19920;-70
2021/12/05 12:07:23;;;;;;;19.00;9.82;;;5.70;99.90;;;;;;5049462;28;20045;-71
2021/12/05 12:09:54;;;;;;;18.92;9.98;;;5.80;99.90;;;;;;5049480;28;20049;-70
2021/12/05 12:12:20;;;;;;;19.95;10.38;;;5.80;99.90;;;;;;5050393;28;20071;-71
2021/12/05 12:14:46;;;;;;;19.70;9.93;;;5.80;99.90;;;;;;5050231;28;20085;-70
2021/12/05 12:17:16;;;;;;;17.23;9.65;;;5.90;99.90;;;;;;5030018;28;20049;-71
2021/12/05 12:19:46;;;;;;;19.02;9.82;;;6.00;99.90;;;;;;5032532;28;20402;-71
2021/12/05 12:22:13;;;;;;;18.17;11.27;;;6.00;99.90;;;;;;5031521;28;20420;-72
2021/12/05 12:24:40;;;;;;;21.40;10.90;;;5.90;99.90;;;;;;5032211;28;20382;-72
2021/12/05 12:27:07;;;;;;;21.30;11.15;;;5.90;99.90;;;;;;5049939;28;20123;-71
2021/12/05 12:29:34;;;;;;;19.77;10.95;;;5.90;99.90;;;;;;5031023;28;20280;-72
2021/12/05 12:32:10;;;;;;;18.55;10.57;;;5.90;99.90;;;;;;5048769;28;20041;-71
2021/12/05 12:34:36;;;;;;;21.40;10.35;;;6.00;99.90;;;;;;5031574;28;20056;-72
2021/12/05 12:37:03;;;;;;;17.92;9.90;;;6.00;99.90;;;;;;5051160;28;20091;-71
2021/12/05 12:39:40;;;;;;;24.50;11.02;;;6.10;99.90;;;;;;5048702;28;20148;-71
2021/12/05 12:42:20;;;;;;;18.27;10.20;;;6.20;99.90;;;;;;5064234;28;20094;-71
2021/12/05 12:45:12;;;;;;;20.17;10.40;;;6.30;99.90;;;;;;5061314;28;20044;-71
2021/12/05 12:47:46;;;;;;;19.23;9.65;;;6.20;99.90;;;;;;5047826;28;20508;-71
2021/12/05 12:50:35;;;;;;;17.10;9.25;;;6.30;99.90;;;;;;5048085;28;20052;-71
2021/12/05 12:53:29;;;;;;;18.00;9.75;;;6.30;99.90;;;;;;5048433;28;20116;-71
2021/12/05 12:56:17;;;;;;;15.90;9.40;;;6.40;99.90;;;;;;5049164;28;20044;-71
2021/12/05 12:58:50;;;;;;;20.83;9.73;;;6.10;99.90;;;;;;5048823;28;20048;-71
2021/12/05 13:04:36;;;;;;;20.70;9.68;;;6.50;99.90;;;;;;5016768;28;20100;-71
2021/12/05 13:10:00;;;;;;;17.52;9.23;;;6.50;99.90;;;;;;5030460;28;20112;-71
2021/12/05 13:10:22;;;;;;;14.18;8.55;;;6.40;99.90;;;;;;5048558;28;20053;-72
2021/12/05 13:12:54;;;;;;;14.40;8.48;;;6.20;99.90;;;;;;5049035;28;20048;-71
2021/12/05 13:15:30;;;;;;;16.35;8.45;;;6.30;99.90;;;;;;5046868;28;20063;-72
2021/12/05 13:18:04;;;;;;;13.13;8.63;;;6.30;99.90;;;;;;5030652;28;20045;-71
2021/12/05 13:20:42;;;;;;;15.60;7.90;;;6.40;99.90;;;;;;5030035;28;20127;-71
2021/12/05 13:23:18;;;;;;;18.83;8.70;;;6.40;99.90;;;;;;5048615;28;20037;-71
2021/12/05 13:26:03;;;;;;;;;;;6.40;99.90;;;;;;5048397;28;20474;-71
2021/12/05 13:28:40;;;;;;;17.25;8.88;;;6.40;99.90;;;;;;5047214;28;20260;-71
2021/12/05 13:31:28;;;;;;;17.65;8.35;;;6.50;99.90;;;;;;5047470;28;20492;-72
2021/12/05 13:34:16;;;;;;;16.17;8.30;;;6.60;99.90;;;;;;5047088;28;20124;-71
2021/12/05 13:36:44;;;;;;;16.27;8.10;;;6.70;99.90;;;;;;5031050;28;20045;-70
2021/12/05 13:39:31;;;;;;;14.90;7.93;;;6.90;99.90;;;;;;5030686;28;20442;-71
2021/12/05 13:42:13;;;;;;;18.70;8.20;;;7.00;99.90;;;;;;5029198;28;20056;-71
2021/12/05 13:45:16;;;;;;;15.02;8.35;;;6.90;99.90;;;;;;5048155;28;20049;-70
2021/12/05 13:47:53;;;;;;;14.75;7.95;;;6.90;99.90;;;;;;5047533;28;20059;-70
2021/12/05 13:50:21;;;;;;;12.73;7.70;;;6.50;99.90;;;;;;5012612;28;20057;-70
2021/12/05 13:52:52;;;;;;;15.63;8.43;;;6.70;99.90;;;;;;5030310;28;20079;-70
2021/12/05 13:56:02;;;;;;;15.30;7.78;;;6.90;99.90;;;;;;5029320;28;20504;-71
2021/12/05 13:58:35;;;;;;;15.98;8.52;;;6.90;99.90;;;;;;5030557;28;20128;-71
2021/12/05 14:01:18;;;;;;;14.48;7.97;;;6.90;99.90;;;;;;5029473;28;20098;-70
2021/12/05 14:04:10;;;;;;;14.68;7.57;;;6.90;99.90;;;;;;5029392;28;20148;-70
2021/12/05 14:06:54;;;;;;;12.77;7.78;;;6.90;99.90;;;;;;5030349;28;20079;-70
2021/12/05 14:09:27;;;;;;;16.63;8.05;;;6.80;99.90;;;;;;5047104;28;20049;-71
2021/12/05 14:11:56;;;;;;;19.42;8.15;;;6.70;99.90;;;;;;5029657;28;20049;-71
2021/12/05 14:14:35;;;;;;;14.70;7.80;;;6.60;99.90;;;;;;5028972;28;20080;-71
2021/12/05 14:17:08;;;;;;;16.02;8.40;;;6.60;99.90;;;;;;5046579;28;20410;-71
2021/12/05 14:19:36;;;;;;;13.10;7.85;;;6.50;99.90;;;;;;5048039;28;20123;-70
2021/12/05 14:22:05;;;;;;;13.82;8.20;;;6.50;99.90;;;;;;5046233;28;20505;-70
2021/12/05 14:24:37;;;;;;;14.10;8.50;;;6.50;99.90;;;;;;5028628;28;20490;-70
2021/12/05 14:27:07;;;;;;;13.05;8.40;;;6.50;99.90;;;;;;5047656;28;20133;-70
2021/12/05 14:29:37;;;;;;;14.70;8.75;;;6.50;99.90;;;;;;5051041;28;20069;-70
2021/12/05 14:32:21;;;;;;;15.38;8.40;;;6.50;99.90;;;;;;5049680;28;20041;-71
2021/12/05 14:34:50;;;;;;;16.00;9.27;;;6.50;99.90;;;;;;5062982;28;20178;-71
2021/12/05 14:37:19;;;;;;;16.65;9.55;;;6.50;99.90;;;;;;5049640;28;20149;-71
2021/12/05 14:39:48;;;;;;;17.83;10.13;;;6.50;99.90;;;;;;5036093;28;20049;-71
2021/12/05 14:42:23;;;;;;;18.13;10.20;;;6.50;99.90;;;;;;5060276;28;20094;-71
2021/12/05 14:44:52;;;;;;;17.45;9.57;;;6.40;99.90;;;;;;5060454;28;20040;-70
2021/12/05 14:47:20;;;;;;;15.73;10.45;;;6.40;99.90;;;;;;5065928;28;20079;-71
2021/12/05 14:49:53;;;;;;;17.63;10.60;;;6.40;99.90;;;;;;5071003;28;20044;-70
2021/12/05 14:52:24;;;;;;;20.35;10.82;;;6.40;99.90;;;;;;5072361;28;20078;-71
2021/12/05 14:54:50;;;;;;;18.45;10.18;;;6.30;99.90;;;;;;5062778;28;20045;-71
2021/12/05 14:57:31;;;;;;;21.38;11.20;;;6.30;99.90;;;;;;5051180;28;20037;-71
2021/12/05 15:00:15;;;;;;;22.33;11.57;;;6.30;99.90;;;;;;5015822;28;20517;-70
2021/12/05 15:02:41;;;;;;;21.08;10.68;;;6.30;99.90;;;;;;5053649;28;20044;-70
2021/12/05 15:05:13;;;;;;;20.75;10.60;;;6.30;99.90;;;;;;5029813;28;20099;-73
2021/12/05 15:07:40;;;;;;;16.15;10.05;;;6.30;99.90;;;;;;5076613;28;20048;-74
2021/12/05 15:10:06;;;;;;;22.10;10.52;;;6.30;99.90;;;;;;5053949;28;20039;-74
2021/12/05 15:12:34;;;;;;;18.80;10.68;;;6.30;99.90;;;;;;5039072;28;20497;-74
2021/12/05 15:15:07;;;;;;;19.50;10.63;;;6.20;99.90;;;;;;5033404;28;20052;-74
2021/12/05 15:17:41;;;;;;;20.02;10.75;;;6.20;99.90;;;;;;5050109;28;20414;-77
2021/12/05 15:20:17;;;;;;;21.80;11.23;;;6.20;99.90;;;;;;5032295;28;20057;-73
2021/12/05 15:22:47;;;;;;;18.92;10.98;;;6.20;99.90;;;;;;5074147;28;20036;-73
2021/12/05 15:25:21;;;;;;;20.65;10.27;;;6.20;99.90;;;;;;5090580;28;20442;-73
2021/12/05 15:27:48;;;;;;;17.50;10.80;;;6.60;99.90;;;;;;5034970;28;20049;-75
2021/12/05 15:30:18;;;;;;;16.77;10.57;;;6.20;99.90;;;;;;5033660;28;20446;-72
2021/12/05 15:32:46;;;;;;;22.95;11.70;;;6.20;99.90;;;;;;5047700;28;20125;-72
2021/12/05 15:35:15;;;;;;;21.40;12.43;;;6.10;99.90;;;;;;5050338;28;20037;-72
2021/12/05 15:37:54;;;;;;;20.25;12.23;;;7.10;99.90;;;;;;5045251;28;20068;-71
2021/12/05 15:40:22;;;;;;;20.60;12.07;;;6.20;99.90;;;;;;5065444;28;20103;-72
2021/12/05 15:42:48;;;;;;;22.25;12.07;;;6.20;99.90;;;;;;5052172;28;20148;-73
2021/12/05 15:45:17;;;;;;;20.70;11.75;;;6.10;99.90;;;;;;5047137;28;20135;-75
2021/12/05 15:47:46;;;;;;;23.77;12.63;;;6.80;99.90;;;;;;5050576;28;20443;-75
2021/12/05 15:50:16;;;;;;;24.92;12.40;;;6.10;99.90;;;;;;5054262;28;20477;-74
2021/12/05 15:52:45;;;;;;;20.63;12.80;;;6.10;99.90;;;;;;5060209;28;20053;-75
2021/12/05 15:55:36;;;;;;;23.17;12.63;;;6.10;99.90;;;;;;5052988;28;20139;-73
2021/12/05 15:58:20;;;;;;;23.42;14.20;;;6.10;99.90;;;;;;5061756;28;20060;-73
2021/12/05 16:01:00;;;;;;;24.52;13.55;;;6.10;99.90;;;;;;5050099;28;20049;-72
2021/12/05 16:03:46;;;;;;;21.58;13.43;;;6.10;99.90;;;;;;5038375;28;20101;-71
2021/12/05 16:06:14;;;;;;;23.70;13.88;;;6.10;99.90;;;;;;5066345;28;20283;-74
2021/12/05 16:08:41;;;;;;;23.98;14.07;;;7.00;99.90;;;;;;5066723;28;20045;-77
2021/12/05 16:11:15;;;;;;;24.48;14.38;;;6.10;99.90;;;;;;5051971;28;20429;-72
2021/12/05 16:13:42;;;;;;;25.50;14.55;;;6.10;99.90;;;;;;5050691;28;20087;-74
2021/12/05 16:16:10;;;;;;;26.95;15.15;;;6.40;99.90;;;;;;5049097;28;20486;-72
2021/12/05 16:18:38;;;;;;;26.70;14.90;;;6.10;99.90;;;;;;5054616;28;20396;-73
2021/12/05 16:21:33;;;;;;;25.38;15.18;;;6.10;99.90;;;;;;5055958;28;20044;-71
2021/12/05 16:24:11;;;;;;;23.33;14.05;;;6.70;99.90;;;;;;5030440;28;20086;-73
2021/12/05 16:26:37;;;;;;;24.55;14.48;;;6.10;99.90;;;;;;5055051;28;20045;-72
2021/12/05 16:29:14;;;;;;;24.60;14.90;;;6.10;99.90;;;;;;5051604;28;20079;-72
2021/12/05 16:31:43;;;;;;;24.20;14.93;;;6.10;99.90;;;;;;5051426;28;20037;-72
2021/12/05 16:34:12;;;;;;;26.13;14.90;;;6.00;99.90;;;;;;5068632;28;20036;-73
2021/12/05 16:36:52;;;;;;;22.83;14.85;;;6.00;99.90;;;;;;5069317;28;20067;-71
2021/12/05 16:39:42;;;;;;;22.73;14.65;;;6.10;99.90;;;;;;5063876;28;20045;-72
2021/12/05 16:42:20;;;;;;;26.63;15.85;;;6.00;99.90;;;;;;5047454;28;20125;-72
2021/12/05 16:44:55;;;;;;;27.83;15.52;;;6.00;99.90;;;;;;5060553;28;20041;-72
2021/12/05 16:47:25;;;;;;;23.40;15.73;;;6.00;99.90;;;;;;5067400;28;20044;-72
2021/12/05 16:49:54;;;;;;;26.83;16.23;;;6.00;99.90;;;;;;5069515;28;20103;-73
2021/12/05 16:52:23;;;;;;;25.35;15.23;;;7.30;99.90;;;;;;5066990;28;20094;-72
2021/12/05 16:54:59;;;;;;;25.83;16.00;;;6.10;99.90;;;;;;5069438;28;20525;-73
2021/12/05 16:57:31;;;;;;;27.17;17.35;;;6.00;99.90;;;;;;5068595;28;20055;-73
2021/12/05 17:00:04;;;;;;;27.85;16.75;;;6.00;99.90;;;;;;5050232;28;20139;-72
2021/12/05 17:02:32;;;;;;;27.85;16.83;;;5.90;99.90;;;;;;5067809;28;20044;-73
2021/12/05 17:05:05;;;;;;;30.15;17.38;;;6.00;99.90;;;;;;5068479;28;20045;-73
2021/12/05 17:07:41;;;;;;;27.48;18.20;;;6.00;99.90;;;;;;5050042;28;20059;-73
2021/12/05 17:10:09;;;;;;;28.85;17.95;;;6.00;99.90;;;;;;5069165;28;20132;-72
2021/12/05 17:12:36;;;;;;;29.90;17.48;;;5.90;99.90;;;;;;5056288;28;20367;-72
2021/12/05 17:15:27;;;;;;;28.50;16.95;;;6.00;99.90;;;;;;5031505;28;20032;-72
2021/12/05 17:18:02;;;;;;;26.85;16.70;;;6.00;99.90;;;;;;5033037;28;20375;-72
2021/12/05 17:20:44;;;;;;;27.92;17.00;;;5.90;99.90;;;;;;5047873;28;20397;-72
2021/12/05 17:23:17;;;;;;;25.33;16.17;;;5.80;99.90;;;;;;5040726;28;20045;-72
2021/12/05 17:25:50;;;;;;;24.73;17.15;;;5.80;99.90;;;;;;5050149;28;20080;-72
2021/12/05 17:28:28;;;;;;;28.45;17.02;;;5.70;99.90;;;;;;5067701;28;20101;-72
2021/12/05 17:30:58;;;;;;;24.00;16.63;;;5.70;99.90;;;;;;5050258;28;20461;-72
2021/12/05 17:33:25;;;;;;;33.85;18.23;;;5.60;99.90;;;;;;5065774;28;20040;-72
2021/12/05 17:35:51;;;;;;;26.45;17.85;;;5.60;99.90;;;;;;5068759;28;20468;-72
2021/12/05 17:38:31;;;;;;;26.30;16.45;;;5.60;99.90;;;;;;5049844;28;20048;-72
2021/12/05 17:40:57;;;;;;;30.02;16.67;;;5.60;99.90;;;;;;5033481;28;20057;-72
2021/12/05 17:43:22;;;;;;;27.92;17.58;;;5.60;99.90;;;;;;5050905;28;20143;-71
2021/12/05 17:45:48;;;;;;;28.67;17.80;;;5.60;99.90;;;;;;5069516;28;20048;-71
2021/12/05 17:48:14;;;;;;;27.58;17.40;;;5.60;99.90;;;;;;5067205;28;20080;-73
2021/12/05 17:50:41;;;;;;;28.23;17.98;;;5.60;99.90;;;;;;5063916;28;20056;-73
2021/12/05 17:53:07;;;;;;;27.90;17.20;;;5.60;99.90;;;;;;5046522;28;20064;-73
2021/12/05 17:55:39;;;;;;;28.02;16.73;;;5.50;99.90;;;;;;5045712;28;20044;-73
2021/12/05 17:58:20;;;;;;;28.60;17.08;;;5.50;99.90;;;;;;5030261;28;20099;-72
2021/12/05 18:00:58;;;;;;;29.67;17.65;;;5.50;99.90;;;;;;5060835;28;20067;-70
2021/12/05 18:03:24;;;;;;;27.25;17.73;;;5.50;99.90;;;;;;5050136;28;20044;-68
2021/12/05 18:05:50;;;;;;;25.38;16.60;;;5.50;99.90;;;;;;5069996;28;20570;-70
2021/12/05 18:08:20;;;;;;;25.95;16.48;;;5.40;99.90;;;;;;5066111;28;20077;-70
2021/12/05 18:10:51;;;;;;;25.83;16.55;;;5.40;99.90;;;;;;5070473;28;20062;-73